Hoogezand, Netherlands
Current Conditions -  °F | °C
As of 3:25 PM on Monday 26 Jan 2015 (Local Time) from EHGG Reporting Station
Broken Clouds Broken Clouds  
Wind Chill: 39°   Ceiling: 3800
Heat Index: 45°   Visibility: 6mi
Dew Point: 43°   Wind: 10mph
Humidity: 93%   Direction: 290°WNW
Pressure: 29.94"   Gusts: NA
Location:  53.16°N, 6.76°E
Report Text: EHGG 261425Z AUTO 29009KT 260V320 9999 FEW007 SCT011 SCT015CBBKN038 07/06 Q1014 NOSIG
Loading
Personal Weather Stations






























Interactive Weather Map New forecast layout! Learn more

10-Day Weather Forecast

Advertisements
Track Severe Weather on mobile